createdAt,value
2022-12-18T00:02:06.788Z,101520.00
2022-12-18T00:04:40.718Z,101514.00
2022-12-18T00:07:14.495Z,101525.00
2022-12-18T00:09:48.639Z,101531.00
2022-12-18T00:12:23.263Z,101516.00
2022-12-18T00:14:58.299Z,101536.00
2022-12-18T00:17:32.496Z,101534.00
2022-12-18T00:20:07.688Z,101544.00
2022-12-18T00:22:42.462Z,101523.00
2022-12-18T00:25:16.695Z,101538.00
2022-12-18T00:27:50.710Z,101528.00
2022-12-18T00:30:26.051Z,101538.00
2022-12-18T00:33:00.657Z,101524.00
2022-12-18T00:35:35.103Z,101519.00
2022-12-18T00:38:08.792Z,101513.00
2022-12-18T00:40:48.462Z,101506.00
2022-12-18T00:43:21.235Z,101517.00
2022-12-18T00:45:56.450Z,101522.00
2022-12-18T00:48:30.235Z,101528.00
2022-12-18T00:51:03.863Z,101513.00
2022-12-18T00:53:38.093Z,101505.00
2022-12-18T00:56:11.987Z,101521.00
2022-12-18T00:58:45.708Z,101522.00
2022-12-18T01:01:21.680Z,101518.00
2022-12-18T01:03:55.528Z,101517.00
2022-12-18T01:06:29.346Z,101479.00
2022-12-18T01:09:03.374Z,101511.00
2022-12-18T01:11:37.258Z,101517.00
2022-12-18T01:14:11.392Z,101521.00
2022-12-18T01:16:47.707Z,101522.00
2022-12-18T01:19:21.767Z,101523.00
2022-12-18T01:21:56.204Z,101525.00
2022-12-18T01:24:30.062Z,101533.00
2022-12-18T01:27:04.448Z,101533.00
2022-12-18T01:29:38.118Z,101528.00
2022-12-18T01:32:13.454Z,101533.00
2022-12-18T01:34:48.044Z,101535.00
2022-12-18T01:37:21.867Z,101525.00
2022-12-18T01:39:56.720Z,101517.00
2022-12-18T01:42:30.838Z,101521.00
2022-12-18T01:45:25.975Z,101523.00
2022-12-18T01:48:05.991Z,101501.00
2022-12-18T01:50:43.183Z,101470.00
2022-12-18T01:53:21.257Z,101514.00
2022-12-18T01:56:00.799Z,101492.00
2022-12-18T01:58:46.607Z,101497.00
2022-12-18T02:01:22.374Z,101493.00
2022-12-18T02:03:59.033Z,101485.00
2022-12-18T02:06:42.541Z,101495.00
2022-12-18T02:09:22.805Z,101487.00
2022-12-18T02:12:06.268Z,101489.00
2022-12-18T02:14:47.211Z,101492.00
2022-12-18T02:17:24.831Z,101494.00
2022-12-18T02:20:16.442Z,101502.00
2022-12-18T02:23:08.853Z,101509.00
2022-12-18T02:26:09.075Z,101499.00
2022-12-18T02:28:49.448Z,101494.00
2022-12-18T02:31:29.978Z,101490.00
2022-12-18T02:34:08.357Z,101492.00
2022-12-18T02:36:45.336Z,101490.00
2022-12-18T02:39:23.046Z,101483.00
2022-12-18T02:41:59.692Z,101483.00
2022-12-18T02:44:33.814Z,101474.00
2022-12-18T02:47:07.595Z,101487.00
2022-12-18T02:49:55.048Z,101498.00
2022-12-18T02:52:41.379Z,101494.00
2022-12-18T02:55:35.437Z,101481.00
2022-12-18T02:58:20.463Z,101493.00
2022-12-18T03:01:03.574Z,101500.00
2022-12-18T03:03:46.744Z,101505.00
2022-12-18T03:06:27.651Z,101508.00
2022-12-18T03:09:08.589Z,101502.00
2022-12-18T03:12:06.486Z,101503.00
2022-12-18T03:14:45.438Z,101508.00
2022-12-18T03:17:23.010Z,101504.00
2022-12-18T03:20:03.235Z,101503.00
2022-12-18T03:22:40.933Z,101500.00
2022-12-18T03:25:18.840Z,101505.00
2022-12-18T03:27:59.815Z,101473.00
2022-12-18T03:30:42.227Z,101481.00
2022-12-18T03:33:22.884Z,101484.00
2022-12-18T03:35:58.014Z,101495.00
2022-12-18T03:38:32.015Z,101490.00
2022-12-18T03:41:17.845Z,101492.00
2022-12-18T03:43:58.379Z,101490.00
2022-12-18T03:46:43.816Z,101486.00
2022-12-18T03:49:32.809Z,101494.00
2022-12-18T03:52:14.136Z,101494.00
2022-12-18T03:54:50.160Z,101494.00
2022-12-18T03:57:29.935Z,101503.00
2022-12-18T04:00:10.314Z,101459.00
2022-12-18T04:02:52.893Z,101475.00
2022-12-18T04:05:32.571Z,101494.00
2022-12-18T04:08:12.788Z,101496.00
2022-12-18T04:10:47.084Z,101476.00
2022-12-18T04:13:25.730Z,101486.00
2022-12-18T04:16:08.846Z,101495.00
2022-12-18T04:18:44.186Z,101469.00
2022-12-18T04:21:18.007Z,101505.00
2022-12-18T04:23:52.225Z,101497.00
2022-12-18T04:26:26.324Z,101494.00
2022-12-18T04:28:59.934Z,101471.00
2022-12-18T04:31:33.729Z,101493.00
2022-12-18T04:34:08.804Z,101491.00
2022-12-18T04:36:42.671Z,101476.00
2022-12-18T04:39:19.887Z,101483.00
2022-12-18T04:41:56.136Z,101485.00
2022-12-18T04:44:33.724Z,101462.00
2022-12-18T04:47:08.954Z,101485.00
2022-12-18T04:49:44.294Z,101488.00
2022-12-18T04:52:18.099Z,101477.00
2022-12-18T04:54:51.799Z,101478.00
2022-12-18T04:57:25.425Z,101472.00
2022-12-18T05:00:00.027Z,101490.00
2022-12-18T05:02:34.855Z,101462.00
2022-12-18T05:05:12.044Z,101467.00
2022-12-18T05:07:45.681Z,101434.00
2022-12-18T05:10:19.976Z,101461.00
2022-12-18T05:13:02.877Z,101459.00
2022-12-18T05:15:37.806Z,101464.00
2022-12-18T05:18:11.718Z,101458.00
2022-12-18T05:20:46.895Z,101449.00
2022-12-18T05:23:21.318Z,101448.00
2022-12-18T05:25:56.741Z,101436.00
2022-12-18T05:28:32.724Z,101441.00
2022-12-18T05:31:07.143Z,101446.00
2022-12-18T05:33:41.370Z,101437.00
2022-12-18T05:36:16.675Z,101435.00
2022-12-18T05:38:53.123Z,101453.00
2022-12-18T05:41:26.864Z,101448.00
2022-12-18T05:44:01.354Z,101452.00
2022-12-18T05:46:35.228Z,101439.00
2022-12-18T05:49:09.164Z,101441.00
2022-12-18T05:51:44.319Z,101454.00
2022-12-18T05:54:18.095Z,101462.00
2022-12-18T05:56:52.019Z,101470.00
2022-12-18T05:59:26.030Z,101477.00
2022-12-18T06:01:59.915Z,101475.00
2022-12-18T06:04:34.046Z,101475.00
2022-12-18T06:07:16.449Z,101448.00
2022-12-18T06:09:49.949Z,101478.00
2022-12-18T06:12:23.759Z,101481.00
2022-12-18T06:14:58.382Z,101494.00
2022-12-18T06:17:32.505Z,101502.00
2022-12-18T06:20:08.077Z,101512.00
2022-12-18T06:22:43.107Z,101519.00
2022-12-18T06:25:16.916Z,101529.00
2022-12-18T06:27:57.134Z,101525.00
2022-12-18T06:30:40.869Z,101530.00
2022-12-18T06:33:14.609Z,101525.00
2022-12-18T06:35:48.311Z,101484.00
2022-12-18T06:38:23.121Z,101528.00
2022-12-18T06:40:56.850Z,101533.00
2022-12-18T06:43:30.816Z,101513.00
2022-12-18T06:46:06.069Z,101508.00
2022-12-18T06:48:39.999Z,101490.00
2022-12-18T06:51:14.637Z,101501.00
2022-12-18T06:53:49.948Z,101491.00
2022-12-18T06:56:23.548Z,101487.00
2022-12-18T06:58:57.458Z,101490.00
2022-12-18T07:01:31.301Z,101487.00
2022-12-18T07:04:04.939Z,101461.00
2022-12-18T07:06:39.080Z,101465.00
2022-12-18T07:09:14.161Z,101465.00
2022-12-18T07:11:48.022Z,101453.00
2022-12-18T07:14:24.311Z,101464.00
2022-12-18T07:16:58.160Z,101456.00
2022-12-18T07:19:32.099Z,101465.00
2022-12-18T07:22:06.320Z,101458.00
2022-12-18T07:24:41.520Z,101464.00
2022-12-18T07:27:15.380Z,101458.00
2022-12-18T07:29:49.089Z,101465.00
2022-12-18T07:32:22.973Z,101467.00
2022-12-18T07:34:56.753Z,101455.00
2022-12-18T07:37:30.590Z,101448.00
2022-12-18T07:40:06.770Z,101439.00
2022-12-18T07:42:41.579Z,101439.00
2022-12-18T07:45:15.500Z,101437.00
2022-12-18T07:47:49.292Z,101432.00
2022-12-18T07:50:23.023Z,101442.00
2022-12-18T07:52:56.801Z,101451.00
2022-12-18T07:55:59.931Z,101461.00
2022-12-18T07:58:26.225Z,101456.00
2022-12-18T08:01:06.718Z,101457.00
2022-12-18T08:03:43.304Z,101457.00
2022-12-18T08:06:17.491Z,101446.00
2022-12-18T08:08:51.100Z,101459.00
2022-12-18T08:11:30.815Z,101455.00
2022-12-18T08:14:04.850Z,101461.00
2022-12-18T08:16:41.382Z,101454.00
2022-12-18T08:19:15.143Z,101448.00
2022-12-18T08:21:49.914Z,101432.00
2022-12-18T08:24:23.686Z,101413.00
2022-12-18T08:27:28.365Z,101431.00
2022-12-18T08:29:54.198Z,101429.00
2022-12-18T08:32:29.798Z,101417.00
2022-12-18T08:35:03.789Z,101397.00
2022-12-18T08:37:37.562Z,101395.00
2022-12-18T08:40:13.829Z,101394.00
2022-12-18T08:43:08.310Z,101392.00
2022-12-18T08:45:42.143Z,101401.00
2022-12-18T08:48:20.678Z,101406.00
2022-12-18T08:51:03.552Z,101400.00
2022-12-18T08:53:37.782Z,101385.00
2022-12-18T08:56:18.338Z,101398.00
2022-12-18T08:58:56.597Z,101393.00
2022-12-18T09:01:31.613Z,101394.00
2022-12-18T09:04:06.744Z,101398.00
2022-12-18T09:06:54.134Z,101393.00
2022-12-18T09:09:27.968Z,101396.00
2022-12-18T09:12:01.643Z,101384.00
2022-12-18T09:14:37.708Z,101392.00
2022-12-18T09:17:11.342Z,101390.00
2022-12-18T09:19:45.030Z,101387.00
2022-12-18T09:22:18.953Z,101367.00
2022-12-18T09:25:22.525Z,101373.00
2022-12-18T09:27:57.490Z,101385.00
2022-12-18T09:30:34.414Z,101385.00
2022-12-18T09:33:09.471Z,101378.00
2022-12-18T09:35:46.363Z,101374.00
2022-12-18T09:38:24.448Z,101382.00
2022-12-18T09:41:08.293Z,101379.00
2022-12-18T09:43:52.337Z,101365.00
2022-12-18T09:46:33.675Z,101373.00
2022-12-18T09:49:15.794Z,101381.00
2022-12-18T09:51:57.687Z,101386.00
2022-12-18T09:54:38.526Z,101377.00
2022-12-18T09:57:17.632Z,101394.00
2022-12-18T09:59:57.680Z,101397.00
2022-12-18T10:02:34.644Z,101382.00
2022-12-18T10:05:19.440Z,101402.00
2022-12-18T10:08:05.107Z,101401.00
2022-12-18T10:10:49.147Z,101392.00
2022-12-18T10:13:36.396Z,101366.00
2022-12-18T10:16:19.015Z,101362.00
2022-12-18T10:19:23.155Z,101343.00
2022-12-18T10:22:13.807Z,101338.00
2022-12-18T10:25:00.821Z,101359.00
2022-12-18T10:27:35.752Z,101346.00
2022-12-18T10:30:17.255Z,101350.00
2022-12-18T10:32:54.734Z,101338.00
2022-12-18T10:35:33.857Z,101334.00
2022-12-18T10:38:25.898Z,101324.00
2022-12-18T10:41:06.250Z,101333.00
2022-12-18T10:43:42.619Z,101335.00
2022-12-18T10:46:25.158Z,101342.00
2022-12-18T10:49:00.888Z,101331.00
2022-12-18T10:51:40.820Z,101327.00
2022-12-18T10:54:21.007Z,101324.00
2022-12-18T10:57:19.302Z,101332.00
2022-12-18T10:59:57.903Z,101325.00
2022-12-18T11:02:43.161Z,101321.00
2022-12-18T11:05:38.060Z,101327.00
2022-12-18T11:08:25.178Z,101321.00
2022-12-18T11:10:59.931Z,101310.00
2022-12-18T11:13:35.165Z,101296.00
2022-12-18T11:16:10.229Z,101301.00
2022-12-18T11:18:44.251Z,101305.00
2022-12-18T11:21:19.309Z,101301.00
2022-12-18T11:23:56.110Z,101304.00
2022-12-18T11:26:38.163Z,101286.00
2022-12-18T11:29:19.309Z,101288.00
2022-12-18T11:31:53.910Z,101295.00
2022-12-18T11:34:32.838Z,101289.00
2022-12-18T11:37:07.236Z,101273.00
2022-12-18T11:39:52.407Z,101273.00
2022-12-18T11:42:36.975Z,101265.00
2022-12-18T11:45:37.524Z,101264.00
2022-12-18T11:48:20.721Z,101255.00
2022-12-18T11:50:58.014Z,101249.00
2022-12-18T11:53:33.581Z,101225.00
2022-12-18T11:56:32.664Z,101217.00
2022-12-18T11:59:23.466Z,101231.00
2022-12-18T12:02:17.141Z,101221.00
2022-12-18T12:05:07.942Z,101235.00
2022-12-18T12:07:54.636Z,101231.00
2022-12-18T12:10:49.333Z,101230.00
2022-12-18T12:13:42.762Z,101230.00
2022-12-18T12:16:27.760Z,101236.00
2022-12-18T12:19:23.075Z,101223.00
2022-12-18T12:22:07.323Z,101227.00
2022-12-18T12:25:01.009Z,101228.00
2022-12-18T12:27:47.800Z,101236.00
2022-12-18T12:30:33.000Z,101233.00
2022-12-18T12:33:29.453Z,101210.00
2022-12-18T12:36:16.228Z,101213.00
2022-12-18T12:38:56.717Z,101210.00
2022-12-18T12:41:53.427Z,101210.00
2022-12-18T12:44:36.987Z,101216.00
2022-12-18T12:47:18.988Z,101209.00
2022-12-18T12:49:54.507Z,101206.00
2022-12-18T12:52:38.461Z,101211.00
2022-12-18T12:55:23.120Z,101210.00
2022-12-18T12:58:09.841Z,101204.00
2022-12-18T13:00:55.758Z,101205.00
2022-12-18T13:03:44.680Z,101206.00
2022-12-18T13:06:32.639Z,101208.00
2022-12-18T13:09:07.030Z,101194.00
2022-12-18T13:12:01.650Z,101203.00
2022-12-18T13:14:39.577Z,101201.00
2022-12-18T13:17:33.517Z,101193.00
2022-12-18T13:20:21.846Z,101201.00
2022-12-18T13:22:56.485Z,101196.00
2022-12-18T13:25:39.280Z,101192.00
2022-12-18T13:28:16.390Z,101207.00
2022-12-18T13:30:58.711Z,101207.00
2022-12-18T13:36:49.614Z,101207.00
2022-12-18T13:39:35.454Z,101196.00
2022-12-18T13:43:09.813Z,101186.00
2022-12-18T13:45:51.680Z,101203.00
2022-12-18T13:48:29.026Z,101188.00
2022-12-18T13:51:08.271Z,101191.00
2022-12-18T13:53:51.470Z,101173.00
2022-12-18T13:56:29.350Z,101176.00
2022-12-18T13:59:25.477Z,101169.00
2022-12-18T14:02:04.193Z,101168.00
2022-12-18T14:04:38.618Z,101160.00
2022-12-18T14:07:19.750Z,101152.00
2022-12-18T14:10:41.836Z,101145.00
2022-12-18T14:13:02.219Z,101132.00
2022-12-18T14:15:42.928Z,101123.00
2022-12-18T14:18:25.944Z,101129.00
2022-12-18T14:21:02.614Z,101123.00
2022-12-18T14:23:41.691Z,101111.00
2022-12-18T14:26:29.889Z,101112.00
2022-12-18T14:29:24.391Z,101089.00
2022-12-18T14:32:17.725Z,101088.00
2022-12-18T14:34:54.939Z,101095.00
2022-12-18T14:37:30.564Z,101082.00
2022-12-18T14:40:16.462Z,101064.00
2022-12-18T14:42:52.123Z,101079.00
2022-12-18T14:45:47.772Z,101087.00
2022-12-18T14:48:27.449Z,101094.00
2022-12-18T14:51:05.299Z,101081.00
2022-12-18T14:53:48.946Z,101081.00
2022-12-18T14:56:29.315Z,101083.00
2022-12-18T14:59:08.217Z,101076.00
2022-12-18T15:01:50.243Z,101065.00
2022-12-18T15:04:30.963Z,101073.00
2022-12-18T15:07:17.240Z,101076.00
2022-12-18T15:10:12.514Z,101068.00
2022-12-18T15:12:48.822Z,101067.00
2022-12-18T15:15:58.420Z,101056.00
2022-12-18T15:18:37.917Z,101057.00
2022-12-18T15:21:19.411Z,101057.00
2022-12-18T15:23:55.463Z,101069.00
2022-12-18T15:26:40.507Z,101059.00
2022-12-18T15:29:23.759Z,101048.00
2022-12-18T15:32:23.039Z,101042.00
2022-12-18T15:35:13.985Z,101050.00
2022-12-18T15:37:48.417Z,101048.00
2022-12-18T15:40:25.497Z,101049.00
2022-12-18T15:43:17.170Z,101068.00
2022-12-18T15:45:51.043Z,101052.00
2022-12-18T15:48:26.252Z,101053.00
2022-12-18T15:51:00.969Z,101044.00
2022-12-18T15:53:36.215Z,101047.00
2022-12-18T15:56:31.094Z,101052.00
2022-12-18T15:59:11.237Z,101037.00
2022-12-18T16:01:49.422Z,101054.00
2022-12-18T16:04:26.298Z,101045.00
2022-12-18T16:07:14.491Z,101029.00
2022-12-18T16:09:51.500Z,101031.00
2022-12-18T16:12:27.388Z,101033.00
2022-12-18T16:15:00.916Z,101023.00
2022-12-18T16:17:34.347Z,101025.00
2022-12-18T16:20:15.953Z,101030.00
2022-12-18T16:22:50.757Z,101036.00
2022-12-18T16:25:28.463Z,101038.00
2022-12-18T16:28:02.428Z,101015.00
2022-12-18T16:30:38.881Z,101014.00
2022-12-18T16:33:13.221Z,101043.00
2022-12-18T16:35:54.718Z,101047.00
2022-12-18T16:38:28.375Z,101049.00
2022-12-18T16:41:20.066Z,101020.00
2022-12-18T16:43:55.072Z,101031.00
2022-12-18T16:46:29.133Z,101060.00
2022-12-18T16:49:03.128Z,101062.00
2022-12-18T16:51:38.617Z,101050.00
2022-12-18T16:54:17.350Z,101057.00
2022-12-18T16:56:53.669Z,101034.00
2022-12-18T16:59:27.736Z,101043.00
2022-12-18T17:02:17.060Z,101040.00
2022-12-18T17:04:56.026Z,101029.00
2022-12-18T17:07:33.215Z,101025.00
2022-12-18T17:10:09.300Z,101011.00
2022-12-18T17:12:43.957Z,100996.00
2022-12-18T17:15:17.865Z,100972.00
2022-12-18T17:17:53.396Z,100989.00
2022-12-18T17:20:27.832Z,100953.00
2022-12-18T17:23:02.924Z,100984.00
2022-12-18T17:25:41.051Z,101002.00
2022-12-18T17:28:14.777Z,101005.00
2022-12-18T17:30:48.170Z,101008.00
2022-12-18T17:33:22.660Z,101003.00
2022-12-18T17:35:59.849Z,100990.00
2022-12-18T17:38:35.366Z,101003.00
2022-12-18T17:41:12.512Z,100977.00
2022-12-18T17:43:46.600Z,100992.00
2022-12-18T17:46:21.095Z,100990.00
2022-12-18T17:48:57.419Z,100985.00
2022-12-18T17:51:31.892Z,100986.00
2022-12-18T17:54:07.249Z,100990.00
2022-12-18T17:56:42.448Z,100968.00
2022-12-18T17:59:16.607Z,101007.00
2022-12-18T18:01:51.471Z,100997.00
2022-12-18T18:04:25.631Z,100999.00
2022-12-18T18:06:59.313Z,100988.00
2022-12-18T18:09:34.536Z,100970.00
2022-12-18T18:12:25.824Z,100993.00
2022-12-18T18:15:02.564Z,100990.00
2022-12-18T18:17:37.183Z,100983.00
2022-12-18T18:20:13.391Z,100985.00
2022-12-18T18:22:49.132Z,100962.00
2022-12-18T18:25:23.929Z,101007.00
2022-12-18T18:28:00.618Z,101001.00
2022-12-18T18:30:38.667Z,101000.00
2022-12-18T18:33:12.582Z,100966.00
2022-12-18T18:35:54.719Z,101009.00
2022-12-18T18:38:29.268Z,101002.00
2022-12-18T18:41:06.658Z,101020.00
2022-12-18T18:43:40.491Z,101021.00
2022-12-18T18:46:17.349Z,101019.00
2022-12-18T18:48:51.117Z,100999.00
2022-12-18T18:51:26.184Z,101003.00
2022-12-18T18:54:02.639Z,101005.00
2022-12-18T18:57:18.387Z,101016.00
2022-12-18T18:59:35.871Z,101017.00
2022-12-18T19:02:13.830Z,101017.00
2022-12-18T19:04:48.069Z,101026.00
2022-12-18T19:07:29.615Z,101020.00
2022-12-18T19:10:05.583Z,101010.00
2022-12-18T19:12:58.557Z,101031.00
2022-12-18T19:15:32.465Z,101035.00
2022-12-18T19:18:09.141Z,101036.00
2022-12-18T19:20:42.819Z,101032.00
2022-12-18T19:23:16.340Z,100985.00
2022-12-18T19:25:52.986Z,101022.00
2022-12-18T19:28:48.953Z,101021.00
2022-12-18T19:31:26.259Z,101007.00
2022-12-18T19:34:03.240Z,100986.00
2022-12-18T19:36:39.288Z,101007.00
2022-12-18T19:39:16.956Z,101004.00
2022-12-18T19:41:51.906Z,101007.00
2022-12-18T19:44:26.892Z,100996.00
2022-12-18T19:47:05.856Z,100998.00
2022-12-18T19:49:39.796Z,101004.00
2022-12-18T19:52:16.320Z,100980.00
2022-12-18T19:54:53.854Z,100991.00
2022-12-18T19:57:30.703Z,100991.00
2022-12-18T20:00:07.542Z,100995.00
2022-12-18T20:02:43.015Z,100985.00
2022-12-18T20:05:16.827Z,100982.00
2022-12-18T20:07:50.327Z,100985.00
2022-12-18T20:10:24.099Z,100990.00
2022-12-18T20:12:57.695Z,100964.00
2022-12-18T20:15:33.929Z,100971.00
2022-12-18T20:18:08.192Z,100961.00
2022-12-18T20:20:42.184Z,100991.00
2022-12-18T20:23:15.985Z,100988.00
2022-12-18T20:25:50.084Z,100996.00
2022-12-18T20:28:28.259Z,100985.00
2022-12-18T20:31:07.045Z,100993.00
2022-12-18T20:33:42.233Z,100963.00
2022-12-18T20:36:21.319Z,100981.00
2022-12-18T20:39:00.476Z,100896.00
2022-12-18T20:41:38.375Z,100984.00
2022-12-18T20:44:22.305Z,100988.00
2022-12-18T20:47:01.594Z,100993.00
2022-12-18T20:49:42.633Z,100985.00
2022-12-18T20:52:19.102Z,100983.00
2022-12-18T20:54:54.483Z,100986.00
2022-12-18T20:57:36.729Z,100996.00
2022-12-18T21:00:18.930Z,100993.00
2022-12-18T21:02:56.271Z,100969.00
2022-12-18T21:05:30.248Z,100977.00
2022-12-18T21:08:03.863Z,100978.00
2022-12-18T21:10:37.443Z,100980.00
2022-12-18T21:13:11.141Z,100969.00
2022-12-18T21:15:45.252Z,100963.00
2022-12-18T21:18:20.298Z,100971.00
2022-12-18T21:20:54.104Z,100974.00
2022-12-18T21:23:27.817Z,100957.00
2022-12-18T21:26:18.093Z,100980.00
2022-12-18T21:28:56.411Z,100987.00
2022-12-18T21:31:33.062Z,100970.00
2022-12-18T21:34:11.504Z,100990.00
2022-12-18T21:36:45.318Z,100984.00
2022-12-18T21:39:22.433Z,100974.00
2022-12-18T21:42:14.724Z,100986.00
2022-12-18T21:44:50.637Z,100985.00
2022-12-18T21:47:24.740Z,101001.00
2022-12-18T21:49:59.615Z,100991.00
2022-12-18T21:52:33.283Z,100986.00
2022-12-18T21:55:09.910Z,100982.00
2022-12-18T21:57:44.093Z,100982.00
2022-12-18T22:00:19.656Z,100988.00
2022-12-18T22:03:17.157Z,100969.00
2022-12-18T22:06:04.089Z,100970.00
2022-12-18T22:08:43.585Z,100971.00
2022-12-18T22:11:17.949Z,100921.00
2022-12-18T22:13:52.617Z,100953.00
2022-12-18T22:16:27.024Z,100968.00
2022-12-18T22:19:00.608Z,100908.00
2022-12-18T22:21:38.375Z,100946.00
2022-12-18T22:24:16.501Z,100944.00
2022-12-18T22:26:53.067Z,100911.00
2022-12-18T22:29:47.959Z,100931.00
2022-12-18T22:32:30.709Z,100923.00
2022-12-18T22:35:12.943Z,100929.00
2022-12-18T22:37:51.014Z,100920.00
2022-12-18T22:40:25.742Z,100910.00
2022-12-18T22:43:00.197Z,100886.00
2022-12-18T22:45:33.824Z,100924.00
2022-12-18T22:48:11.592Z,100914.00
2022-12-18T22:50:46.352Z,100914.00
2022-12-18T22:53:22.872Z,100911.00
2022-12-18T22:56:02.705Z,100907.00
2022-12-18T22:58:37.154Z,100909.00
2022-12-18T23:01:23.124Z,100908.00
2022-12-18T23:03:57.413Z,100905.00
2022-12-18T23:06:31.205Z,100904.00
2022-12-18T23:09:06.727Z,100897.00
2022-12-18T23:11:40.458Z,100909.00
2022-12-18T23:14:15.434Z,100888.00
2022-12-18T23:16:49.038Z,100898.00
2022-12-18T23:19:25.151Z,100889.00
2022-12-18T23:21:59.095Z,100883.00
2022-12-18T23:24:34.000Z,100874.00
2022-12-18T23:27:11.422Z,100868.00
2022-12-18T23:29:45.297Z,100851.00
2022-12-18T23:32:20.984Z,100863.00
2022-12-18T23:34:55.611Z,100849.00
2022-12-18T23:37:50.235Z,100846.00
2022-12-18T23:40:24.245Z,100851.00
2022-12-18T23:42:57.938Z,100845.00
2022-12-18T23:45:31.538Z,100845.00
2022-12-18T23:48:05.472Z,100826.00
2022-12-18T23:50:39.353Z,100819.00
2022-12-18T23:53:13.444Z,100819.00
2022-12-18T23:55:48.228Z,100826.00
2022-12-18T23:58:23.643Z,100822.00
